Time;durP1;ratioP1;P1;durP2;ratioP2;P2;SDS_P1;SDS_P2;PMS_P1;PMS_P2;Temp;Humidity;BMP_temperature;BMP_pressure;BME280_temperature;BME280_humidity;BME280_pressure;Samples;Min_cycle;Max_cycle;Signal;HPM_P1;HPM_P2
2022/11/17 00:00:40;;;;;;;0.40;0.40;;;16.50;60.70;;;16.35;45.24;93498.03;5054658;28;20191;-74
2022/11/17 00:03:14;;;;;;;0.60;0.60;;;16.60;60.80;;;16.38;45.56;93492.19;5054591;28;20403;-75
2022/11/17 00:05:43;;;;;;;0.50;0.50;;;16.50;60.70;;;16.38;45.29;93500.13;5037954;28;20734;-75
2022/11/17 00:08:10;;;;;;;0.50;0.50;;;16.60;60.80;;;16.39;45.39;93507.03;5038461;28;20516;-75
2022/11/17 00:10:37;;;;;;;0.50;0.50;;;16.60;60.80;;;16.38;45.22;93498.31;5054436;28;20202;-75
2022/11/17 00:15:50;;;;;;;0.60;0.60;;;16.60;60.80;;;16.36;45.49;93492.47;5040324;28;20206;-75
2022/11/17 00:21:20;;;;;;;0.50;0.50;;;16.60;60.80;;;16.36;45.57;93481.88;5055160;28;20195;-75
2022/11/17 00:23:48;;;;;;;0.60;0.60;;;16.60;60.80;;;16.35;45.30;93480.28;5039942;28;20237;-75
2022/11/17 00:26:18;;;;;;;0.50;0.50;;;16.50;60.80;;;16.32;45.39;93465.75;5054151;28;20207;-75
2022/11/17 00:28:47;;;;;;;0.50;0.50;;;16.60;60.80;;;16.35;45.36;93474.22;5037475;28;20195;-74
2022/11/17 00:34:05;;;;;;;0.50;0.50;;;16.60;60.80;;;16.34;45.34;93486.63;5054313;28;20193;-75
2022/11/17 00:36:40;;;;;;;0.60;0.60;;;16.50;60.70;;;16.35;45.22;93490.09;5038455;28;20598;-75
2022/11/17 00:39:09;;;;;;;0.50;0.50;;;16.50;60.70;;;16.35;45.41;93479.50;5037525;28;20286;-75
2022/11/17 00:41:36;;;;;;;0.40;0.40;;;16.50;60.70;;;16.32;45.33;93473.66;5053960;28;20230;-75
2022/11/17 00:44:05;;;;;;;0.47;0.47;;;16.50;60.70;;;16.31;45.44;93473.94;5037608;28;20712;-75
2022/11/17 00:46:34;;;;;;;0.40;0.40;;;16.50;60.70;;;16.35;45.16;93467.06;5054110;28;20222;-75
2022/11/17 00:49:01;;;;;;;0.60;0.60;;;16.50;60.70;;;16.33;45.45;93459.41;5053828;28;20195;-75
2022/11/17 00:51:28;;;;;;;0.40;0.40;;;16.50;60.70;;;16.31;45.65;93450.91;5037610;28;20562;-75
2022/11/17 00:53:55;;;;;;;0.47;0.47;;;16.50;60.70;;;16.36;45.62;93455.41;5053877;28;20192;-75
2022/11/17 00:56:23;;;;;;;0.50;0.50;;;16.50;60.70;;;16.33;45.60;93448.00;5053801;28;20199;-75
2022/11/17 00:58:50;;;;;;;0.45;0.45;;;16.50;60.80;;;16.35;45.44;93453.03;5053733;28;20210;-75
2022/11/17 01:01:18;;;;;;;0.52;0.52;;;16.50;60.70;;;16.35;45.22;93455.69;5037240;28;20630;-75
2022/11/17 01:03:45;;;;;;;0.45;0.45;;;16.50;60.70;;;16.36;45.19;93463.34;5053763;28;20195;-75
2022/11/17 01:06:17;;;;;;;0.60;0.60;;;16.50;60.70;;;16.35;45.41;93460.97;5020839;28;20223;-75
2022/11/17 01:08:45;;;;;;;0.50;0.50;;;16.50;60.70;;;16.33;45.45;93456.75;5053694;28;20164;-75
2022/11/17 01:11:16;;;;;;;0.50;0.50;;;16.50;60.70;;;16.34;45.61;93460.19;5053711;28;20195;-75
2022/11/17 01:13:46;;;;;;;0.50;0.50;;;16.50;60.70;;;16.35;44.87;93469.72;5053789;28;20179;-75
2022/11/17 01:16:16;;;;;;;0.60;0.60;;;16.50;60.70;;;16.36;45.71;93470.50;5053701;28;20253;-75
2022/11/17 01:18:46;;;;;;;0.50;0.50;;;16.50;60.70;;;16.34;45.63;93468.13;5053425;28;20191;-75
2022/11/17 01:21:17;;;;;;;0.60;0.60;;;16.50;60.70;;;16.35;45.50;93468.94;5037135;28;20215;-74
2022/11/17 01:23:47;;;;;;;0.47;0.47;;;16.50;60.70;;;16.34;45.15;93465.47;5070265;28;20274;-75
2022/11/17 01:26:35;;;;;;;0.60;0.60;;;16.50;60.70;;;16.32;45.26;93457.81;5053542;28;20219;-75
2022/11/17 01:29:04;;;;;;;0.40;0.40;;;16.50;61.70;;;16.29;45.20;93446.94;5036860;28;20210;-75
2022/11/17 01:31:38;;;;;;;0.50;0.50;;;16.50;60.70;;;16.33;45.57;93453.28;5053516;28;20192;-75
2022/11/17 01:34:06;;;;;;;0.50;0.50;;;16.50;60.70;;;16.29;45.45;93447.72;5053738;28;20180;-75
2022/11/17 01:39:29;;;;;;;0.40;0.40;;;16.50;60.80;;;16.31;45.32;93437.69;5039353;28;20634;-75
2022/11/17 01:41:57;;;;;;;0.50;0.50;;;16.50;60.70;;;16.31;45.53;93435.03;5053337;28;20716;-75
2022/11/17 01:44:53;;;;;;;0.50;0.50;;;16.50;60.70;;;16.30;45.49;93433.44;5056061;28;20571;-75
2022/11/17 01:47:38;;;;;;;0.60;0.60;;;16.50;60.70;;;16.29;45.49;93434.50;5057852;28;20225;-75
2022/11/17 01:50:23;;;;;;;0.57;0.57;;;16.50;60.70;;;16.27;45.40;93423.41;5040638;28;20183;-75
2022/11/17 01:52:52;;;;;;;0.50;0.50;;;16.50;60.70;;;16.29;45.54;93428.44;5057101;28;20180;-75
2022/11/17 01:55:23;;;;;;;0.45;0.45;;;16.50;61.70;;;16.29;45.29;93426.56;5040349;28;20651;-75
2022/11/17 01:58:02;;;;;;;0.50;0.50;;;16.50;60.70;;;16.29;45.31;93439.00;5056824;28;20194;-75
2022/11/17 02:00:29;;;;;;;0.50;0.50;;;16.50;60.70;;;16.31;45.33;93439.53;5056912;28;20184;-75
2022/11/17 02:02:57;;;;;;;0.50;0.50;;;16.50;60.70;;;16.30;45.24;93444.03;5056831;28;20195;-74
2022/11/17 02:06:06;;;;;;;0.45;0.45;;;16.50;60.70;;;16.29;45.43;93446.94;5056849;28;20192;-75
2022/11/17 02:08:36;;;;;;;0.50;0.50;;;16.50;60.70;;;16.27;45.13;93444.56;5040431;28;20217;-75
2022/11/17 02:11:11;;;;;;;0.40;0.40;;;16.50;60.70;;;16.28;45.57;93429.47;5040117;28;20196;-75
2022/11/17 02:13:39;;;;;;;0.60;0.60;;;16.50;60.70;;;16.28;45.40;93427.66;5040093;28;20205;-75
2022/11/17 02:16:11;;;;;;;0.50;0.50;;;16.50;60.70;;;16.28;45.45;93419.72;5040049;28;20199;-75
2022/11/17 02:18:43;;;;;;;0.50;0.50;;;16.50;60.70;;;16.29;45.30;93418.63;5056540;28;20187;-75
2022/11/17 02:22:06;;;;;;;0.50;0.50;;;16.50;60.70;;;16.26;45.49;93415.72;5040035;28;20188;-75
2022/11/17 02:25:07;;;;;;;0.60;0.60;;;16.40;60.60;;;16.23;45.25;93411.75;5057447;28;20198;-74
2022/11/17 02:28:06;;;;;;;0.50;0.50;;;16.50;60.70;;;16.21;45.20;93421.81;5056050;28;20249;-75
2022/11/17 02:30:52;;;;;;;0.40;0.40;;;16.40;60.60;;;16.21;45.37;93421.00;5056334;28;20196;-75
2022/11/17 02:33:43;;;;;;;0.60;0.60;;;16.40;60.60;;;16.24;45.52;93431.06;5057767;28;20184;-76
2022/11/17 02:36:40;;;;;;;0.50;0.50;;;16.40;60.60;;;16.22;45.54;93427.88;5056203;28;20634;-75
2022/11/17 02:39:20;;;;;;;0.50;0.50;;;16.40;60.60;;;16.21;45.56;93419.16;5039429;28;20213;-75
2022/11/17 02:44:02;;;;;;;0.63;0.63;;;16.40;60.60;;;16.17;45.83;93415.44;5056048;28;20285;-76
2022/11/17 02:45:17;;;;;;;0.60;0.60;;;16.40;60.60;;;16.17;45.43;93410.16;5056258;28;20196;-75
2022/11/17 02:47:47;;;;;;;0.50;0.50;;;16.40;60.60;;;16.21;45.08;93411.25;5055917;28;20195;-76
2022/11/17 02:50:16;;;;;;;0.40;0.40;;;16.40;60.60;;;16.21;45.42;93408.59;5039421;28;20246;-75
2022/11/17 02:52:43;;;;;;;0.50;0.50;;;16.40;60.60;;;16.23;45.30;93409.09;5055969;28;20183;-76
2022/11/17 02:55:10;;;;;;;0.50;0.50;;;16.40;60.60;;;16.23;45.42;93411.75;5055719;28;20184;-76
2022/11/17 02:57:40;;;;;;;0.60;0.60;;;16.40;60.60;;;16.24;45.34;93405.41;5039335;28;20237;-76
2022/11/17 03:00:13;;;;;;;0.40;0.40;;;16.40;60.60;;;16.25;45.40;93411.50;5055691;28;20191;-76
2022/11/17 03:03:08;;;;;;;0.50;0.50;;;16.40;60.60;;;16.23;45.67;93409.09;5055754;28;20195;-76
2022/11/17 03:06:05;;;;;;;0.50;0.50;;;16.40;60.60;;;16.23;45.55;93411.75;5055803;28;20553;-74
2022/11/17 03:08:32;;;;;;;0.50;0.50;;;16.40;60.60;;;16.24;45.48;93404.63;5055450;28;20215;-76
2022/11/17 03:11:06;;;;;;;0.70;0.70;;;16.40;60.60;;;16.22;45.47;93391.66;5056499;28;20184;-75
2022/11/17 03:13:57;;;;;;;0.60;0.60;;;16.40;60.60;;;16.23;45.05;93395.09;5039004;28;20654;-75
2022/11/17 03:16:48;;;;;;;0.60;0.60;;;16.40;60.70;;;16.21;45.26;93405.13;5039105;28;20211;-76
2022/11/17 03:19:26;;;;;;;0.50;0.50;;;16.40;60.60;;;16.15;45.45;93388.50;5039509;28;20191;-76
2022/11/17 03:22:08;;;;;;;0.55;0.55;;;16.40;60.60;;;16.20;45.37;93396.41;5056393;28;20179;-75
2022/11/17 03:24:47;;;;;;;0.50;0.50;;;16.40;60.60;;;16.24;45.38;93397.47;5055367;28;20632;-75
2022/11/17 03:27:25;;;;;;;0.50;0.50;;;16.40;60.60;;;16.21;45.51;93384.78;5055266;28;20656;-75
2022/11/17 03:29:58;;;;;;;0.50;0.50;;;16.40;60.60;;;16.22;45.66;93383.72;5071607;28;20194;-75
2022/11/17 03:32:29;;;;;;;0.60;0.60;;;16.40;60.70;;;16.21;45.58;93386.63;5038729;28;20183;-75
2022/11/17 03:35:02;;;;;;;0.50;0.50;;;16.40;60.60;;;16.21;45.44;93389.25;5038682;28;20180;-75
2022/11/17 03:37:33;;;;;;;0.60;0.60;;;16.40;60.60;;;16.22;45.52;93391.66;5038649;28;20175;-75
2022/11/17 03:40:08;;;;;;;0.50;0.50;;;16.40;60.60;;;16.24;45.25;93404.63;5038191;28;20687;-75
2022/11/17 03:42:39;;;;;;;0.50;0.50;;;16.40;60.60;;;16.19;45.37;93392.19;5055067;28;20197;-75
2022/11/17 03:45:40;;;;;;;0.40;0.40;;;16.40;60.60;;;16.23;45.08;93395.88;5038496;28;20195;-75
2022/11/17 03:48:16;;;;;;;0.50;0.50;;;16.40;60.60;;;16.21;45.13;93402.50;5054623;28;20214;-75
2022/11/17 03:50:54;;;;;;;0.50;0.50;;;16.40;60.60;;;16.15;45.41;93385.84;5038733;28;20187;-75
2022/11/17 03:53:23;;;;;;;0.50;0.50;;;16.40;60.60;;;16.23;45.45;93408.31;5038216;28;20202;-76
2022/11/17 03:56:31;;;;;;;0.40;0.40;;;16.40;60.60;;;16.22;45.27;93412.03;5054911;28;20225;-76
2022/11/17 03:59:12;;;;;;;0.60;0.60;;;16.40;60.60;;;16.18;45.46;93409.09;5055393;28;20191;-75
2022/11/17 04:01:39;;;;;;;0.60;0.60;;;16.40;60.60;;;16.21;45.34;93403.31;5054719;28;20184;-75
2022/11/17 04:04:06;;;;;;;0.50;0.50;;;16.40;60.60;;;16.21;45.33;93399.84;5038101;28;20230;-75
2022/11/17 04:06:33;;;;;;;0.50;0.50;;;16.40;60.70;;;16.21;45.36;93402.50;5037393;28;20207;-75
2022/11/17 04:09:00;;;;;;;0.55;0.55;;;16.40;60.60;;;16.15;45.22;93389.28;5037782;28;20264;-75
2022/11/17 04:17:33;;;;;;;0.50;0.50;;;16.40;60.60;;;16.19;45.44;93397.47;5002617;28;20260;-75
2022/11/17 04:20:00;;;;;;;0.40;0.40;;;16.40;60.60;;;16.19;45.56;93400.13;5046511;28;20199;-75
2022/11/17 04:22:27;;;;;;;0.40;0.40;;;16.40;61.60;;;16.22;45.35;93394.31;5054439;28;20202;-75
2022/11/17 04:24:54;;;;;;;0.45;0.45;;;16.40;60.60;;;16.23;45.69;93392.44;5054460;28;20257;-75
2022/11/17 04:30:07;;;;;;;0.60;0.60;;;16.40;60.60;;;16.21;45.29;93387.44;5054006;28;20195;-75
2022/11/17 04:32:34;;;;;;;0.60;0.60;;;16.40;60.60;;;16.19;45.28;93384.25;5037722;28;20187;-76
2022/11/17 04:35:01;;;;;;;0.50;0.50;;;16.40;60.60;;;16.22;45.11;93396.16;5054271;28;20202;-75
2022/11/17 04:37:28;;;;;;;0.40;0.40;;;16.40;60.60;;;16.21;45.68;93394.56;5054108;28;20520;-76
2022/11/17 04:39:55;;;;;;;0.40;0.40;;;16.40;60.60;;;16.19;45.50;93394.81;5054613;28;20188;-75
2022/11/17 04:42:22;;;;;;;0.50;0.50;;;16.40;60.60;;;16.23;45.42;93406.47;5054211;28;20553;-75
2022/11/17 04:44:49;;;;;;;0.50;0.50;;;16.40;60.60;;;16.23;45.68;93398.53;5053952;28;20199;-75
2022/11/17 04:47:16;;;;;;;0.40;0.40;;;16.40;60.60;;;16.22;45.03;93402.25;5037653;28;20212;-75
2022/11/17 04:49:43;;;;;;;0.50;0.50;;;16.40;60.60;;;16.23;45.54;93397.75;5054655;28;20188;-75
2022/11/17 04:52:10;;;;;;;0.47;0.47;;;16.40;60.60;;;16.24;45.28;93399.34;5054771;28;20198;-75
2022/11/17 04:54:37;;;;;;;0.45;0.45;;;16.40;60.60;;;16.16;45.54;93396.16;5037355;28;20597;-75
2022/11/17 04:57:04;;;;;;;0.52;0.52;;;16.40;60.60;;;16.22;45.25;93396.97;5054738;28;20187;-75
2022/11/17 04:59:31;;;;;;;0.40;0.40;;;16.40;60.70;;;16.24;45.28;93397.47;5053823;28;20290;-75
2022/11/17 05:01:58;;;;;;;0.60;0.60;;;16.40;60.60;;;16.23;45.62;93390.59;5054691;28;20252;-75
2022/11/17 05:07:17;;;;;;;0.50;0.50;;;16.40;60.60;;;16.15;45.46;93369.97;5053975;28;20209;-75
2022/11/17 05:09:44;;;;;;;0.60;0.60;;;16.40;60.70;;;16.23;45.38;93384.50;5070194;28;20201;-75
2022/11/17 05:14:56;;;;;;;0.50;0.50;;;16.40;60.60;;;16.19;45.48;93378.97;5053949;28;20183;-75
2022/11/17 05:17:23;;;;;;;0.50;0.50;;;16.40;60.60;;;16.22;45.42;93386.38;5037456;28;20639;-75
2022/11/17 05:19:50;;;;;;;0.50;0.50;;;16.40;60.60;;;16.23;45.49;93390.59;5041058;28;20191;-75
2022/11/17 05:25:08;;;;;;;0.40;0.40;;;16.40;60.60;;;16.20;45.39;93385.84;5060137;28;20512;-75
2022/11/17 05:27:36;;;;;;;0.40;0.40;;;16.40;60.60;;;16.22;45.23;93388.22;5041097;28;20329;-75
2022/11/17 05:30:07;;;;;;;0.45;0.45;;;16.40;60.60;;;16.17;45.49;93371.28;5058297;28;20194;-75
2022/11/17 05:32:34;;;;;;;0.40;0.40;;;16.40;60.60;;;16.17;45.32;93368.66;5057557;28;20172;-75
2022/11/17 05:35:01;;;;;;;0.50;0.50;;;16.40;60.60;;;16.22;45.40;93380.28;5040778;28;20257;-75
2022/11/17 05:37:28;;;;;;;0.63;0.63;;;16.40;60.60;;;16.22;45.00;93369.69;5057476;28;20196;-75
2022/11/17 05:39:55;;;;;;;0.50;0.50;;;16.40;60.60;;;16.20;45.48;93380.53;5040331;28;20619;-75
2022/11/17 05:42:22;;;;;;;0.60;0.60;;;16.40;60.60;;;16.22;45.20;93386.38;5058201;28;20267;-75
2022/11/17 05:44:49;;;;;;;0.57;0.57;;;16.40;60.60;;;16.23;45.53;93389.81;5057257;28;20215;-75
2022/11/17 05:47:17;;;;;;;0.43;0.43;;;16.40;60.60;;;16.21;45.35;93371.56;5058240;28;20215;-75
2022/11/17 05:49:44;;;;;;;0.40;0.40;;;16.40;60.60;;;16.22;45.65;93365.22;5056996;28;20619;-75
2022/11/17 05:52:12;;;;;;;0.50;0.50;;;16.40;60.60;;;16.21;45.42;93366.25;5057944;28;20199;-75
2022/11/17 05:54:39;;;;;;;0.40;0.40;;;16.40;60.60;;;16.17;45.50;93360.72;5057887;28;20222;-75
2022/11/17 05:57:11;;;;;;;0.50;0.50;;;16.40;60.60;;;16.22;45.09;93370.50;5024162;28;20199;-75
2022/11/17 05:59:49;;;;;;;0.47;0.47;;;16.40;60.60;;;16.21;45.45;93371.56;5056983;28;20176;-75
2022/11/17 06:02:23;;;;;;;0.50;0.50;;;16.40;60.60;;;16.20;45.43;93362.03;5056963;28;20191;-75
2022/11/17 06:04:50;;;;;;;0.40;0.40;;;16.40;60.60;;;16.23;45.77;93366.78;5057839;28;20171;-75
2022/11/17 06:07:19;;;;;;;0.30;0.30;;;16.40;60.60;;;16.20;45.58;93366.50;5040148;28;20576;-75
2022/11/17 06:09:47;;;;;;;0.40;0.40;;;16.40;60.60;;;16.21;45.40;93368.91;5056943;28;20195;-75
2022/11/17 06:12:14;;;;;;;0.40;0.40;;;16.40;60.60;;;16.21;45.25;93363.63;5040064;28;20210;-75
2022/11/17 06:14:41;;;;;;;0.60;0.60;;;16.40;60.60;;;16.21;45.50;93363.63;5056674;28;20195;-76
2022/11/17 06:17:24;;;;;;;0.43;0.43;;;16.40;60.60;;;16.20;45.56;93355.94;5056663;28;20200;-75
2022/11/17 06:20:02;;;;;;;0.40;0.40;;;16.40;60.60;;;16.20;45.38;93356.75;5041833;28;20168;-75
2022/11/17 06:22:29;;;;;;;0.43;0.43;;;16.40;60.60;;;16.20;45.43;93356.75;5040211;28;20163;-75
2022/11/17 06:24:58;;;;;;;0.60;0.60;;;16.40;60.60;;;16.22;45.03;93364.41;5023575;28;20196;-75
2022/11/17 06:27:26;;;;;;;0.40;0.40;;;16.40;60.60;;;16.19;45.28;93359.66;5056344;28;20218;-75
2022/11/17 06:29:54;;;;;;;0.40;0.40;;;16.40;60.60;;;16.21;45.61;93362.81;5055856;28;20198;-81
2022/11/17 06:32:22;;;;;;;0.50;0.50;;;16.40;60.60;;;16.21;45.32;93368.91;5056158;28;20196;-75
2022/11/17 06:34:49;;;;;;;0.55;0.55;;;16.40;60.60;;;16.22;45.53;93377.63;5056506;28;20188;-75
2022/11/17 06:37:22;;;;;;;0.50;0.50;;;16.40;60.60;;;16.20;45.18;93377.09;5056307;28;20180;-75
2022/11/17 06:39:50;;;;;;;0.40;0.40;;;16.40;60.60;;;16.20;45.58;93377.91;5039375;28;20290;-75
2022/11/17 06:42:18;;;;;;;0.50;0.50;;;16.40;60.60;;;16.20;45.48;93380.53;5039738;28;20176;-75
2022/11/17 06:44:45;;;;;;;0.47;0.47;;;16.40;60.60;;;16.21;45.52;93381.31;5056905;28;20199;-75
2022/11/17 06:47:12;;;;;;;0.60;0.60;;;16.40;60.60;;;16.20;45.48;93387.66;5055911;28;20210;-75
2022/11/17 06:49:39;;;;;;;0.50;0.50;;;16.40;60.60;;;16.20;45.32;93375.25;5055864;28;20582;-74
2022/11/17 06:52:06;;;;;;;0.68;0.68;;;16.40;60.60;;;16.21;45.35;93376.84;5056056;28;20234;-75
2022/11/17 06:54:33;;;;;;;0.40;0.40;;;16.40;60.60;;;16.14;45.32;93366.50;5055965;28;20251;-75
2022/11/17 06:57:00;;;;;;;0.50;0.50;;;16.40;60.60;;;16.21;45.50;93378.69;5039407;28;20286;-75
2022/11/17 06:59:28;;;;;;;0.50;0.50;;;16.40;60.70;;;16.21;45.78;93374.19;5039522;28;20196;-75
2022/11/17 07:01:55;;;;;;;0.50;0.50;;;16.40;60.60;;;16.22;45.53;93381.09;5039498;28;20199;-75
2022/11/17 07:04:22;;;;;;;0.40;0.40;;;16.40;60.60;;;16.22;45.03;93378.44;5055758;28;20550;-75
2022/11/17 07:06:49;;;;;;;0.70;0.70;;;16.40;60.60;;;16.22;45.54;93381.09;5072252;28;20203;-75
2022/11/17 07:09:16;;;;;;;0.50;0.50;;;16.40;60.70;;;16.22;45.26;93382.91;5055466;28;20211;-75
2022/11/17 07:11:44;;;;;;;0.45;0.45;;;16.40;60.60;;;16.22;45.68;93374.97;5055553;28;20238;-75
2022/11/17 07:14:11;;;;;;;0.50;0.50;;;16.40;60.60;;;16.22;45.16;93359.91;5055677;28;20198;-76
2022/11/17 07:16:42;;;;;;;0.50;0.50;;;16.40;60.60;;;16.22;44.92;93370.50;5055762;28;20199;-75
2022/11/17 07:19:10;;;;;;;0.50;0.50;;;16.40;60.60;;;16.22;45.53;93369.69;5055972;28;20214;-76
2022/11/17 07:21:37;;;;;;;0.40;0.40;;;16.40;60.60;;;16.23;45.52;93374.72;5038764;28;20207;-75
2022/11/17 07:24:05;;;;;;;0.60;0.60;;;16.40;60.70;;;16.22;45.32;93370.50;5055366;28;20281;-76
2022/11/17 07:26:32;;;;;;;0.43;0.43;;;16.40;60.60;;;16.17;45.18;93359.91;5071946;28;20237;-76
2022/11/17 07:29:00;;;;;;;0.60;0.60;;;16.40;60.60;;;16.24;45.55;93372.88;5071813;28;20262;-76
2022/11/17 07:31:27;;;;;;;0.50;0.50;;;16.40;60.60;;;16.23;45.42;93360.69;5038955;28;20199;-76
2022/11/17 07:33:54;;;;;;;0.40;0.40;;;16.40;60.60;;;16.23;45.36;93358.06;5038864;28;20209;-76
2022/11/17 07:36:21;;;;;;;0.43;0.43;;;16.40;60.70;;;16.23;45.59;93356.19;5055165;28;20189;-75
2022/11/17 07:38:49;;;;;;;0.50;0.50;;;16.40;60.70;;;16.23;45.34;93353.53;5055152;28;20223;-76
2022/11/17 07:41:16;;;;;;;0.50;0.50;;;16.40;60.60;;;16.23;45.40;93350.91;5037254;28;20692;-75
2022/11/17 07:43:43;;;;;;;0.60;0.60;;;16.40;60.60;;;16.22;45.15;93356.47;5055032;28;20196;-76
2022/11/17 07:46:12;;;;;;;0.40;0.40;;;16.40;60.60;;;16.24;45.34;93351.72;5038851;28;20305;-76
2022/11/17 07:48:42;;;;;;;0.40;0.40;;;16.40;60.60;;;16.25;44.96;93366.53;5054828;28;20252;-81
2022/11/17 07:51:12;;;;;;;0.40;0.40;;;16.40;60.60;;;16.25;44.94;93359.38;5038243;28;20521;-76
2022/11/17 07:53:40;;;;;;;0.40;0.40;;;16.40;60.60;;;16.25;45.42;93359.38;5038948;28;20206;-75
2022/11/17 07:56:09;;;;;;;0.50;0.50;;;16.40;60.60;;;16.22;45.39;93344.06;5055625;28;20233;-76
2022/11/17 07:58:38;;;;;;;0.50;0.50;;;16.40;60.60;;;16.26;45.40;93357.50;5054757;28;20578;-76
2022/11/17 08:01:09;;;;;;;0.50;0.50;;;16.40;60.60;;;16.22;45.63;93353.81;5054618;28;20210;-76
2022/11/17 08:03:36;;;;;;;0.60;0.60;;;16.40;60.60;;;16.24;45.45;93364.94;5054815;28;20215;-75
2022/11/17 08:06:08;;;;;;;0.50;0.50;;;16.40;60.60;;;16.26;45.56;93376.03;5054698;28;20294;-75
2022/11/17 08:08:36;;;;;;;0.40;0.40;;;16.40;60.60;;;16.26;45.35;93374.19;5071399;28;20211;-76
2022/11/17 08:11:07;;;;;;;0.50;0.50;;;16.40;60.60;;;16.26;45.38;93365.44;5038005;28;20210;-76
2022/11/17 08:13:35;;;;;;;0.60;0.60;;;16.40;60.60;;;16.25;45.62;93372.59;5054502;28;20518;-75
2022/11/17 08:16:05;;;;;;;0.50;0.50;;;16.40;60.60;;;16.25;45.54;93372.59;5038042;28;20622;-76
2022/11/17 08:18:33;;;;;;;0.50;0.50;;;16.40;60.60;;;16.27;45.50;93375.78;5037808;28;20273;-76
2022/11/17 08:21:06;;;;;;;0.60;0.60;;;16.40;60.60;;;16.26;45.26;93370.75;5054252;28;20202;-75
2022/11/17 08:23:34;;;;;;;0.40;0.40;;;16.40;60.60;;;16.27;45.53;93370.50;5054291;28;20206;-76
2022/11/17 08:26:03;;;;;;;0.50;0.50;;;16.40;60.60;;;16.27;45.21;93361.75;5054396;28;20660;-77
2022/11/17 08:28:32;;;;;;;0.60;0.60;;;16.50;60.70;;;16.29;45.63;93370.22;5054258;28;20475;-75
2022/11/17 08:31:03;;;;;;;0.50;0.50;;;16.50;60.70;;;16.27;45.19;93361.75;5037910;28;20282;-75
2022/11/17 08:33:33;;;;;;;0.40;0.40;;;16.40;60.60;;;16.27;45.17;93367.84;5054239;28;20282;-76
2022/11/17 08:36:02;;;;;;;0.43;0.43;;;16.40;60.60;;;16.27;44.97;93373.13;5038058;28;20241;-76
2022/11/17 08:38:30;;;;;;;0.40;0.40;;;16.40;60.60;;;16.23;45.32;93369.41;5054113;28;20191;-75
2022/11/17 08:41:02;;;;;;;0.45;0.45;;;16.40;60.60;;;16.28;45.27;93377.38;5053793;28;20682;-75
2022/11/17 08:43:32;;;;;;;0.40;0.40;;;16.40;60.60;;;16.28;45.25;93374.72;5037897;28;20272;-76
2022/11/17 08:46:01;;;;;;;0.60;0.60;;;16.40;60.60;;;16.28;45.13;93366.78;5054225;28;20672;-75
2022/11/17 08:48:30;;;;;;;0.50;0.50;;;16.50;60.70;;;16.29;45.08;93371.00;5054170;28;20253;-75
2022/11/17 08:50:58;;;;;;;0.50;0.50;;;16.40;60.60;;;16.30;45.40;93367.31;5053870;28;20189;-75
2022/11/17 08:53:25;;;;;;;0.50;0.50;;;16.50;60.80;;;16.30;45.42;93374.47;5053761;28;20538;-75
2022/11/17 08:55:52;;;;;;;0.50;0.50;;;16.40;60.60;;;16.29;45.52;93375.50;5054780;28;20713;-75
2022/11/17 08:58:19;;;;;;;0.50;0.50;;;16.50;60.70;;;16.29;45.36;93367.56;5037544;28;20202;-75
2022/11/17 09:00:46;;;;;;;0.50;0.50;;;16.50;60.70;;;16.29;45.36;93365.72;5037204;28;20199;-75
2022/11/17 09:03:14;;;;;;;0.50;0.50;;;16.50;60.70;;;16.29;45.45;93363.06;5054984;28;20606;-75
2022/11/17 09:05:45;;;;;;;0.50;0.50;;;16.50;60.70;;;16.27;45.28;93351.16;5053972;28;20266;-75
2022/11/17 09:08:13;;;;;;;0.40;0.40;;;16.50;60.70;;;16.30;45.10;93362.00;5037615;28;20219;-75
2022/11/17 09:11:08;;;;;;;0.50;0.50;;;16.50;60.70;;;16.31;45.58;93368.13;5026633;28;20217;-75
2022/11/17 09:13:37;;;;;;;0.50;0.50;;;16.50;60.70;;;16.30;45.12;93374.47;5054160;28;20179;-76
2022/11/17 09:16:08;;;;;;;0.40;0.40;;;16.50;60.70;;;16.31;45.22;93384.00;5053734;28;20183;-75
2022/11/17 09:18:37;;;;;;;0.50;0.50;;;16.50;60.70;;;16.29;45.54;93380.81;5053845;28;20180;-74
2022/11/17 09:21:12;;;;;;;0.47;0.47;;;16.50;60.70;;;16.32;45.14;93383.72;5053718;28;20196;-75
2022/11/17 09:23:39;;;;;;;0.47;0.47;;;16.50;60.70;;;16.27;45.49;93367.84;5053698;28;20193;-76
2022/11/17 09:26:11;;;;;;;0.45;0.45;;;16.50;60.70;;;16.31;45.15;93387.41;5037132;28;20196;-76
2022/11/17 09:28:38;;;;;;;0.60;0.60;;;16.50;60.70;;;16.31;45.13;93390.06;5053638;28;20642;-75
2022/11/17 09:31:15;;;;;;;0.50;0.50;;;16.50;61.70;;;16.32;45.13;93402.25;5054449;28;20607;-75
2022/11/17 09:33:43;;;;;;;0.40;0.40;;;16.50;60.70;;;16.31;45.04;93405.94;5053554;28;20290;-76
2022/11/17 09:36:13;;;;;;;0.50;0.50;;;16.50;60.70;;;16.32;45.29;93396.16;5037213;28;20210;-75
2022/11/17 09:38:40;;;;;;;0.50;0.50;;;16.50;61.70;;;16.32;45.49;93396.16;5037077;28;20197;-75
2022/11/17 09:41:23;;;;;;;0.40;0.40;;;16.50;60.70;;;16.33;45.20;93384.50;5053161;28;20259;-75
2022/11/17 09:44:19;;;;;;;0.50;0.50;;;16.50;60.70;;;16.32;45.22;93385.56;5037038;28;20191;-76
2022/11/17 09:47:02;;;;;;;0.43;0.43;;;16.50;60.70;;;16.31;45.21;93384.78;5070070;28;20192;-76
2022/11/17 09:49:58;;;;;;;0.50;0.50;;;16.50;60.70;;;16.30;45.04;93380.53;5053531;28;20223;-76
2022/11/17 09:52:48;;;;;;;0.40;0.40;;;16.50;60.70;;;16.30;45.40;93372.59;5054325;28;20259;-75
2022/11/17 09:55:36;;;;;;;0.40;0.40;;;16.50;60.70;;;16.26;45.19;93368.91;5067973;28;20188;-76
2022/11/17 09:58:15;;;;;;;0.40;0.40;;;16.50;60.70;;;16.29;45.13;93378.94;5053540;28;20282;-76
2022/11/17 10:00:51;;;;;;;0.40;0.40;;;16.50;60.70;;;16.30;45.33;93385.03;5053466;28;20180;-75
2022/11/17 10:03:35;;;;;;;0.50;0.50;;;16.50;60.70;;;16.29;45.46;93388.75;5054153;28;20175;-75
2022/11/17 10:06:16;;;;;;;0.50;0.50;;;16.50;60.70;;;16.29;45.50;93388.75;5056315;28;20603;-76
2022/11/17 10:09:16;;;;;;;0.50;0.50;;;16.50;60.70;;;16.28;45.50;93401.19;5056847;28;20203;-75
2022/11/17 10:11:53;;;;;;;0.47;0.47;;;16.50;60.70;;;16.28;45.11;93397.72;5056605;28;20689;-76
2022/11/17 10:14:21;;;;;;;0.55;0.55;;;16.50;60.70;;;16.28;45.37;93400.38;5056596;28;20206;-75
2022/11/17 10:16:55;;;;;;;0.68;0.68;;;16.50;60.70;;;16.29;45.39;93410.69;5040169;28;20196;-75
2022/11/17 10:19:28;;;;;;;0.50;0.50;;;16.50;60.70;;;16.32;45.50;93418.13;5056707;28;20622;-75
2022/11/17 10:22:01;;;;;;;0.50;0.50;;;16.50;60.70;;;16.31;45.24;93421.03;5039947;28;20202;-75
2022/11/17 10:24:51;;;;;;;0.40;0.40;;;16.50;60.70;;;16.30;45.26;93432.66;5056490;28;20274;-75
2022/11/17 10:27:31;;;;;;;0.40;0.40;;;16.50;60.70;;;16.32;45.49;93438.50;5056497;28;20187;-75
2022/11/17 10:30:23;;;;;;;0.40;0.40;;;16.50;60.70;;;16.31;45.29;93452.78;5056515;28;20207;-75
2022/11/17 10:32:54;;;;;;;0.50;0.50;;;16.50;60.70;;;16.26;45.41;93448.28;5023528;28;20638;-75
2022/11/17 10:35:34;;;;;;;0.40;0.40;;;16.50;60.70;;;16.25;45.53;93448.53;5040138;28;20223;-75
2022/11/17 10:38:14;;;;;;;0.40;0.40;;;16.50;60.70;;;16.30;45.54;93453.84;5056359;28;20583;-75
2022/11/17 10:40:41;;;;;;;0.50;0.50;;;16.50;60.70;;;16.32;45.35;93452.50;5056755;28;20623;-75
2022/11/17 10:43:11;;;;;;;0.50;0.50;;;16.50;60.70;;;16.33;45.55;93448.00;5057030;28;20249;-75
2022/11/17 10:45:50;;;;;;;0.43;0.43;;;16.50;60.80;;;16.31;45.10;93448.28;5039503;28;20187;-75
2022/11/17 10:48:34;;;;;;;0.50;0.50;;;16.50;60.70;;;16.31;45.18;93442.19;5039489;28;20199;-75
2022/11/17 10:51:18;;;;;;;0.50;0.50;;;16.50;60.70;;;16.31;45.42;93456.22;5039384;28;20191;-75
2022/11/17 10:54:04;;;;;;;0.60;0.60;;;16.50;60.70;;;16.31;45.46;93464.13;5056408;28;20183;-75
2022/11/17 10:56:39;;;;;;;0.60;0.60;;;16.50;60.70;;;16.30;45.28;93465.19;5039500;28;20206;-76
2022/11/17 10:59:16;;;;;;;0.52;0.52;;;16.50;60.70;;;16.31;45.38;93464.13;5056089;28;20194;-76
2022/11/17 11:01:47;;;;;;;0.40;0.40;;;16.50;60.80;;;16.31;45.53;93461.50;5056582;28;20190;-75
2022/11/17 11:04:38;;;;;;;0.60;0.60;;;16.50;60.70;;;16.27;45.48;93451.69;5055784;28;20215;-75
2022/11/17 11:07:05;;;;;;;0.50;0.50;;;16.50;60.70;;;16.31;45.62;93458.06;5055939;28;20184;-76
2022/11/17 11:09:35;;;;;;;0.57;0.57;;;16.50;60.70;;;16.26;45.32;93445.63;5055747;28;20208;-76
2022/11/17 11:12:09;;;;;;;0.40;0.40;;;16.50;60.70;;;16.32;45.26;93439.28;5023441;28;20201;-76